Jewel Of The Seas — C6FW9 — position and weather

sailwx.info

Track history (hours):
 
Tides and Currents Weather Stations Pressure Air Temp Water Temp Dewpoint Dewpoint Depression Visibility Wind Speed Wind Dir Waves Ship Positions

Jewel Of The Seas

Operator: Royal Caribbean Cruises Ltd

Last reported at 2017-Sep-22 02:00 UTC. Time now 2017-Sep-23 14:50 UTC.
Position N 37°17' E 024°60'.

Length 290 m; draft 8.6 m.

Type: Passenger vessel. MMSI: 311583000.

Date/timePositionNaut miles runAvg speedWind from/ knotsBaromVisibWave heightAir tempDewpointWater temp
2017-Sep-22 02:00N 37°17' E 024°60'815.6
2017-Sep-22 01:30N 37°13' E 024°51'42214.6
2017-Sep-20 20:40N 37°47' E 016°01'915.4
2017-Sep-20 20:07N 37°49' E 015°51'315.7
2017-Sep-20 19:55N 37°50' E 015°47'615.7
2017-Sep-20 19:30N 37°52' E 015°39'815.4
2017-Sep-20 19:00N 37°59' E 015°34'815.6
2017-Sep-20 18:30N 38°07' E 015°34'510.4
2017-Sep-20 18:01N 38°12' E 015°34'0 0.6
2017-Sep-20 17:28N 38°12' E 015°33'0 0.0
2017-Sep-20 16:58N 38°12' E 015°33'0 0.0
2017-Sep-20 16:28N 38°12' E 015°33'0 0.0
2017-Sep-20 15:58N 38°12' E 015°33'0 0.0
2017-Sep-20 15:28N 38°12' E 015°33'0 0.0
2017-Sep-20 14:58N 38°12' E 015°33'0 0.0
2017-Sep-20 13:55N 38°12' E 015°33'0 0.0
2017-Sep-20 13:28N 38°12' E 015°33'0 0.0
2017-Sep-20 12:58N 38°12' E 015°33'0 0.0
2017-Sep-20 12:28N 38°12' E 015°33'0 0.0
2017-Sep-20 11:58N 38°12' E 015°33'0 0.0
2017-Sep-20 11:28N 38°12' E 015°33'0 0.0
2017-Sep-20 10:58N 38°12' E 015°33'0 0.0
2017-Sep-20 10:28N 38°12' E 015°33'0 0.0
2017-Sep-20 09:58N 38°12' E 015°33'0 0.0
2017-Sep-20 09:28N 38°12' E 015°33'0 0.0
2017-Sep-20 08:58N 38°12' E 015°33'0 0.7
2017-Sep-20 08:31N 38°12' E 015°34'713.6
2017-Sep-20 08:00N 38°16' E 015°40'713.6
2017-Sep-20 07:31N 38°23' E 015°38'917.4
2017-Sep-20 07:00N 38°29' E 015°30'917.6
2017-Sep-20 06:30N 38°35' E 015°22'917.9
2017-Sep-20 06:00N 38°41' E 015°14'918.0
2017-Sep-20 05:30N 38°47' E 015°05'918.0
2017-Sep-20 05:00N 38°54' E 014°57'112 3.1
2017-Sep-18 17:18N 40°38' E 014°03'517.3
2017-Sep-18 17:00N 40°41' E 014°08'917.4
2017-Sep-18 16:30N 40°47' E 014°16'49 3.1
2017-Sep-18 00:36N 39°60' E 014°30'716.1
2017-Sep-18 00:09N 39°54' E 014°34'416.0
2017-Sep-17 23:55N 39°50' E 014°37'715.9
2017-Sep-17 23:28N 39°44' E 014°41'2016.8
2017-Sep-17 22:15N 39°26' E 014°54'521.5
2017-Sep-17 22:00N 39°22' E 014°58'5621.7
2017-Sep-17 19:26N 38°33' E 015°33'921.5
2017-Sep-17 19:00N 38°25' E 015°39'918.9
2017-Sep-17 18:30N 38°16' E 015°42'816.7
2017-Sep-17 18:00N 38°09' E 015°36'1020.1
2017-Sep-17 17:31N 37°59' E 015°36'918.9
2017-Sep-17 17:01N 37°52' E 015°43'1222.4
2017-Sep-17 16:28N 37°48' E 015°58'4222.4
2017-Sep-17 14:35N 37°37' E 016°49'222.8
2017-Sep-17 14:30N 37°36' E 016°51'1123.0
2017-Sep-17 14:00N 37°33' E 017°05'1223.1
2017-Sep-17 13:30N 37°30' E 017°19'1122.7
2017-Sep-17 13:01N 37°27' E 017°33'918.7
2017-Sep-17 12:31N 37°24' E 017°44'917.2
2017-Sep-17 12:01N 37°21' E 017°55'816.8
2017-Sep-17 11:31N 37°19' E 018°05'816.8
2017-Sep-17 11:00N 37°17' E 018°15'816.9
2017-Sep-17 10:31N 37°14' E 018°25'816.7
2017-Sep-17 10:00N 37°12' E 018°35'816.9
2017-Sep-17 09:31N 37°10' E 018°45'816.7
2017-Sep-17 09:00N 37°07' E 018°55'816.8
2017-Sep-17 08:31N 37°05' E 019°05'917.3
2017-Sep-17 08:01N 37°02' E 019°16'917.5
2017-Sep-17 07:31N 36°60' E 019°26'917.8
2017-Sep-17 07:00N 36°57' E 019°37'917.8
2017-Sep-17 06:30N 36°54' E 019°47'918.1
2017-Sep-17 06:01N 36°52' E 019°58'917.9
2017-Sep-17 05:31N 36°49' E 020°09'918.2
2017-Sep-17 05:01N 36°47' E 020°20'918.1
2017-Sep-17 04:30N 36°45' E 020°31'917.9
2017-Sep-17 04:00N 36°42' E 020°42'917.9
2017-Sep-17 03:31N 36°40' E 020°52'917.8
2017-Sep-17 03:00N 36°37' E 021°03'917.6
2017-Sep-17 02:30N 36°35' E 021°14'817.3
2017-Sep-17 02:00N 36°32' E 021°24'917.1
2017-Sep-17 01:31N 36°30' E 021°34'816.9
2017-Sep-17 01:00N 36°27' E 021°44'916.8
2017-Sep-17 00:30N 36°25' E 021°54'1016.8
2017-Sep-16 23:55N 36°23' E 022°06'817.1
2017-Sep-16 23:29N 36°22' E 022°15'4617.5
2017-Sep-16 20:51N 36°23' E 023°12'6516.9
2017-Sep-16 16:59N 37°25' E 023°39'1117.1
2017-Sep-16 16:22N 37°35' E 023°42'617.1
2017-Sep-16 16:01N 37°41' E 023°42'917.4
2017-Sep-16 15:30N 37°49' E 023°37'714.2
2017-Sep-16 15:00N 37°56' E 023°37'1 1.5
2017-Sep-16 14:28N 37°56' E 023°38'0 0.0
2017-Sep-16 13:58N 37°56' E 023°38'0 0.0
2017-Sep-16 13:28N 37°56' E 023°38'0 0.0
2017-Sep-16 12:55N 37°56' E 023°38'0 0.0
2017-Sep-16 12:28N 37°56' E 023°38'0 0.0
2017-Sep-16 11:58N 37°56' E 023°38'0 0.0
2017-Sep-16 11:28N 37°56' E 023°38'0 0.0
2017-Sep-16 10:58N 37°56' E 023°38'0 0.0
2017-Sep-16 10:28N 37°56' E 023°38'0 0.0
2017-Sep-16 09:58N 37°56' E 023°38'0 0.0
2017-Sep-16 09:28N 37°56' E 023°38'0 0.0
2017-Sep-16 08:58N 37°56' E 023°38'0 0.0
2017-Sep-16 08:28N 37°56' E 023°38'0 0.0
2017-Sep-16 07:58N 37°56' E 023°38'0 0.0
2017-Sep-16 07:28N 37°56' E 023°38'0 0.0
2017-Sep-16 06:58N 37°56' E 023°38'0 0.0
2017-Sep-16 06:28N 37°56' E 023°38'0 0.0
2017-Sep-16 05:58N 37°56' E 023°38'0 0.0
2017-Sep-16 05:28N 37°56' E 023°38'0 0.0
2017-Sep-16 04:58N 37°56' E 023°38'0 0.0
2017-Sep-16 04:28N 37°56' E 023°38'0 0.0
2017-Sep-16 03:58N 37°56' E 023°38'0 0.0
2017-Sep-16 03:28N 37°56' E 023°38'0 0.0
2017-Sep-16 02:58N 37°56' E 023°38'0 0.0
2017-Sep-16 02:28N 37°56' E 023°38'0 0.0
2017-Sep-16 01:58N 37°56' E 023°38'0 0.0
2017-Sep-16 01:28N 37°56' E 023°38'0 0.0
2017-Sep-16 00:58N 37°56' E 023°38'0 0.0
2017-Sep-16 00:30N 37°56' E 023°38'2 3.3
2017-Sep-16 00:00N 37°55' E 023°37'713.6
2017-Sep-15 23:31N 37°49' E 023°40'815.1
2017-Sep-15 23:01N 37°42' E 023°44'714.9
2017-Sep-15 22:31N 37°35' E 023°47'714.9
2017-Sep-15 22:01N 37°28' E 023°51'815.2
2017-Sep-15 21:31N 37°22' E 023°55'714.6
2017-Sep-15 21:01N 37°15' E 023°58'714.3
2017-Sep-15 20:31N 37°08' E 024°00'714.7
2017-Sep-15 20:00N 37°01' E 024°02'714.8
2017-Sep-15 19:30N 36°54' E 024°05'714.9
2017-Sep-15 19:00N 36°47' E 024°10'1314.3
2017-Sep-15 18:05N 36°35' E 024°17'1314.4
2017-Sep-15 17:11N 36°32' E 024°33'514.3
2017-Sep-15 16:49N 36°30' E 024°39'614.5
2017-Sep-15 16:23N 36°29' E 024°47'614.5
2017-Sep-15 15:58N 36°27' E 024°54'65 1.4
2017-Sep-13 17:09N 37°14' E 025°51'212.7
2017-Sep-13 17:00N 37°15' E 025°49'612.6
2017-Sep-13 16:30N 37°20' E 025°44'612.3
2017-Sep-13 16:00N 37°24' E 025°39'612.7
2017-Sep-13 15:30N 37°29' E 025°34'612.4
2017-Sep-13 15:00N 37°31' E 025°27'612.7
2017-Sep-13 14:30N 37°31' E 025°19'3 5.5
2017-Sep-13 14:00N 37°28' E 025°19'0 0.0
2017-Sep-13 13:30N 37°28' E 025°19'0 0.0
2017-Sep-13 13:00N 37°28' E 025°19'0 0.0
2017-Sep-13 12:30N 37°28' E 025°19'0 0.0
2017-Sep-13 12:00N 37°28' E 025°19'0 0.0
2017-Sep-13 11:30N 37°28' E 025°19'0 0.0
2017-Sep-13 11:00N 37°28' E 025°19'0 0.0
2017-Sep-13 10:30N 37°28' E 025°19'0 0.0
2017-Sep-13 10:00N 37°28' E 025°19'0 0.0
2017-Sep-13 09:30N 37°28' E 025°19'0 0.0
2017-Sep-13 09:00N 37°28' E 025°19'0 0.0
2017-Sep-13 08:30N 37°28' E 025°19'0 0.0
2017-Sep-13 08:00N 37°28' E 025°19'0 0.0
2017-Sep-13 07:30N 37°28' E 025°19'0 0.0
2017-Sep-13 06:57N 37°28' E 025°19'0 0.0
2017-Sep-13 06:30N 37°28' E 025°19'0 0.0
2017-Sep-13 06:00N 37°28' E 025°19'0 0.0
2017-Sep-13 05:30N 37°28' E 025°19'0 0.0
2017-Sep-13 05:00N 37°28' E 025°19'0 0.0
2017-Sep-13 04:30N 37°28' E 025°19'0 0.0
2017-Sep-13 04:00N 37°28' E 025°19'0 0.4
2017-Sep-13 03:30N 37°28' E 025°19'510.4
2017-Sep-13 03:01N 37°27' E 025°13'713.6
2017-Sep-13 02:31N 37°23' E 025°06'714.7
2017-Sep-13 02:01N 37°18' E 024°60'815.3
2017-Sep-13 01:31N 37°13' E 024°52'  
Track history (hours):
 
Tides and Currents Weather Stations Pressure Air Temp Water Temp Dewpoint Dewpoint Depression Visibility Wind Speed Wind Dir Waves Ship Positions

Jewel Of The Seas

Operator: Royal Caribbean Cruises Ltd

Last reported at 2017-Sep-22 02:00 UTC. Time now 2017-Sep-23 14:50 UTC.
Position N 37°17' E 024°60'.

Length 290 m; draft 8.6 m.

Type: Passenger vessel. MMSI: 311583000.

Date/timePositionNaut miles runAvg speedWind from/ knotsBaromVisibWave heightAir tempDewpointWater temp
2017-Sep-22 02:00N 37°17' E 024°60'815.6
2017-Sep-22 01:30N 37°13' E 024°51'42214.6
2017-Sep-20 20:40N 37°47' E 016°01'915.4
2017-Sep-20 20:07N 37°49' E 015°51'315.7
2017-Sep-20 19:55N 37°50' E 015°47'615.7
2017-Sep-20 19:30N 37°52' E 015°39'815.4
2017-Sep-20 19:00N 37°59' E 015°34'815.6
2017-Sep-20 18:30N 38°07' E 015°34'510.4
2017-Sep-20 18:01N 38°12' E 015°34'0 0.6
2017-Sep-20 17:28N 38°12' E 015°33'0 0.0
2017-Sep-20 16:58N 38°12' E 015°33'0 0.0
2017-Sep-20 16:28N 38°12' E 015°33'0 0.0
2017-Sep-20 15:58N 38°12' E 015°33'0 0.0
2017-Sep-20 15:28N 38°12' E 015°33'0 0.0
2017-Sep-20 14:58N 38°12' E 015°33'0 0.0
2017-Sep-20 13:55N 38°12' E 015°33'0 0.0
2017-Sep-20 13:28N 38°12' E 015°33'0 0.0
2017-Sep-20 12:58N 38°12' E 015°33'0 0.0
2017-Sep-20 12:28N 38°12' E 015°33'0 0.0
2017-Sep-20 11:58N 38°12' E 015°33'0 0.0
2017-Sep-20 11:28N 38°12' E 015°33'0 0.0
2017-Sep-20 10:58N 38°12' E 015°33'0 0.0
2017-Sep-20 10:28N 38°12' E 015°33'0 0.0
2017-Sep-20 09:58N 38°12' E 015°33'0 0.0
2017-Sep-20 09:28N 38°12' E 015°33'0 0.0
2017-Sep-20 08:58N 38°12' E 015°33'0 0.7
2017-Sep-20 08:31N 38°12' E 015°34'713.6
2017-Sep-20 08:00N 38°16' E 015°40'713.6
2017-Sep-20 07:31N 38°23' E 015°38'917.4
2017-Sep-20 07:00N 38°29' E 015°30'917.6
2017-Sep-20 06:30N 38°35' E 015°22'917.9
2017-Sep-20 06:00N 38°41' E 015°14'918.0
2017-Sep-20 05:30N 38°47' E 015°05'918.0
2017-Sep-20 05:00N 38°54' E 014°57'112 3.1
2017-Sep-18 17:18N 40°38' E 014°03'517.3
2017-Sep-18 17:00N 40°41' E 014°08'917.4
2017-Sep-18 16:30N 40°47' E 014°16'49 3.1
2017-Sep-18 00:36N 39°60' E 014°30'716.1
2017-Sep-18 00:09N 39°54' E 014°34'416.0
2017-Sep-17 23:55N 39°50' E 014°37'715.9
2017-Sep-17 23:28N 39°44' E 014°41'2016.8
2017-Sep-17 22:15N 39°26' E 014°54'521.5
2017-Sep-17 22:00N 39°22' E 014°58'5621.7
2017-Sep-17 19:26N 38°33' E 015°33'921.5
2017-Sep-17 19:00N 38°25' E 015°39'918.9
2017-Sep-17 18:30N 38°16' E 015°42'816.7
2017-Sep-17 18:00N 38°09' E 015°36'1020.1
2017-Sep-17 17:31N 37°59' E 015°36'918.9
2017-Sep-17 17:01N 37°52' E 015°43'1222.4
2017-Sep-17 16:28N 37°48' E 015°58'4222.4
2017-Sep-17 14:35N 37°37' E 016°49'222.8
2017-Sep-17 14:30N 37°36' E 016°51'1123.0
2017-Sep-17 14:00N 37°33' E 017°05'1223.1
2017-Sep-17 13:30N 37°30' E 017°19'1122.7
2017-Sep-17 13:01N 37°27' E 017°33'918.7
2017-Sep-17 12:31N 37°24' E 017°44'917.2
2017-Sep-17 12:01N 37°21' E 017°55'816.8
2017-Sep-17 11:31N 37°19' E 018°05'816.8
2017-Sep-17 11:00N 37°17' E 018°15'816.9
2017-Sep-17 10:31N 37°14' E 018°25'816.7
2017-Sep-17 10:00N 37°12' E 018°35'816.9
2017-Sep-17 09:31N 37°10' E 018°45'816.7
2017-Sep-17 09:00N 37°07' E 018°55'816.8
2017-Sep-17 08:31N 37°05' E 019°05'917.3
2017-Sep-17 08:01N 37°02' E 019°16'917.5
2017-Sep-17 07:31N 36°60' E 019°26'917.8
2017-Sep-17 07:00N 36°57' E 019°37'917.8
2017-Sep-17 06:30N 36°54' E 019°47'918.1
2017-Sep-17 06:01N 36°52' E 019°58'917.9
2017-Sep-17 05:31N 36°49' E 020°09'918.2
2017-Sep-17 05:01N 36°47' E 020°20'918.1
2017-Sep-17 04:30N 36°45' E 020°31'917.9
2017-Sep-17 04:00N 36°42' E 020°42'917.9
2017-Sep-17 03:31N 36°40' E 020°52'917.8
2017-Sep-17 03:00N 36°37' E 021°03'917.6
2017-Sep-17 02:30N 36°35' E 021°14'817.3
2017-Sep-17 02:00N 36°32' E 021°24'917.1
2017-Sep-17 01:31N 36°30' E 021°34'816.9
2017-Sep-17 01:00N 36°27' E 021°44'916.8
2017-Sep-17 00:30N 36°25' E 021°54'1016.8
2017-Sep-16 23:55N 36°23' E 022°06'817.1
2017-Sep-16 23:29N 36°22' E 022°15'4617.5
2017-Sep-16 20:51N 36°23' E 023°12'6516.9
2017-Sep-16 16:59N 37°25' E 023°39'1117.1
2017-Sep-16 16:22N 37°35' E 023°42'617.1
2017-Sep-16 16:01N 37°41' E 023°42'917.4
2017-Sep-16 15:30N 37°49' E 023°37'714.2
2017-Sep-16 15:00N 37°56' E 023°37'1 1.5
2017-Sep-16 14:28N 37°56' E 023°38'0 0.0
2017-Sep-16 13:58N 37°56' E 023°38'0 0.0
2017-Sep-16 13:28N 37°56' E 023°38'0 0.0
2017-Sep-16 12:55N 37°56' E 023°38'0 0.0
2017-Sep-16 12:28N 37°56' E 023°38'0 0.0
2017-Sep-16 11:58N 37°56' E 023°38'0 0.0
2017-Sep-16 11:28N 37°56' E 023°38'0 0.0
2017-Sep-16 10:58N 37°56' E 023°38'0 0.0
2017-Sep-16 10:28N 37°56' E 023°38'0 0.0
2017-Sep-16 09:58N 37°56' E 023°38'0 0.0
2017-Sep-16 09:28N 37°56' E 023°38'0 0.0
2017-Sep-16 08:58N 37°56' E 023°38'0 0.0
2017-Sep-16 08:28N 37°56' E 023°38'0 0.0
2017-Sep-16 07:58N 37°56' E 023°38'0 0.0
2017-Sep-16 07:28N 37°56' E 023°38'0 0.0
2017-Sep-16 06:58N 37°56' E 023°38'0 0.0
2017-Sep-16 06:28N 37°56' E 023°38'0 0.0
2017-Sep-16 05:58N 37°56' E 023°38'0 0.0
2017-Sep-16 05:28N 37°56' E 023°38'0 0.0
2017-Sep-16 04:58N 37°56' E 023°38'0 0.0
2017-Sep-16 04:28N 37°56' E 023°38'0 0.0
2017-Sep-16 03:58N 37°56' E 023°38'0 0.0
2017-Sep-16 03:28N 37°56' E 023°38'0 0.0
2017-Sep-16 02:58N 37°56' E 023°38'0 0.0
2017-Sep-16 02:28N 37°56' E 023°38'0 0.0
2017-Sep-16 01:58N 37°56' E 023°38'0 0.0
2017-Sep-16 01:28N 37°56' E 023°38'0 0.0
2017-Sep-16 00:58N 37°56' E 023°38'0 0.0
2017-Sep-16 00:30N 37°56' E 023°38'2 3.3
2017-Sep-16 00:00N 37°55' E 023°37'713.6
2017-Sep-15 23:31N 37°49' E 023°40'815.1
2017-Sep-15 23:01N 37°42' E 023°44'714.9
2017-Sep-15 22:31N 37°35' E 023°47'714.9
2017-Sep-15 22:01N 37°28' E 023°51'815.2
2017-Sep-15 21:31N 37°22' E 023°55'714.6
2017-Sep-15 21:01N 37°15' E 023°58'714.3
2017-Sep-15 20:31N 37°08' E 024°00'714.7
2017-Sep-15 20:00N 37°01' E 024°02'714.8
2017-Sep-15 19:30N 36°54' E 024°05'714.9
2017-Sep-15 19:00N 36°47' E 024°10'1314.3
2017-Sep-15 18:05N 36°35' E 024°17'1314.4
2017-Sep-15 17:11N 36°32' E 024°33'514.3
2017-Sep-15 16:49N 36°30' E 024°39'614.5
2017-Sep-15 16:23N 36°29' E 024°47'614.5
2017-Sep-15 15:58N 36°27' E 024°54'65 1.4
2017-Sep-13 17:09N 37°14' E 025°51'212.7
2017-Sep-13 17:00N 37°15' E 025°49'612.6
2017-Sep-13 16:30N 37°20' E 025°44'612.3
2017-Sep-13 16:00N 37°24' E 025°39'612.7
2017-Sep-13 15:30N 37°29' E 025°34'612.4
2017-Sep-13 15:00N 37°31' E 025°27'612.7
2017-Sep-13 14:30N 37°31' E 025°19'3 5.5
2017-Sep-13 14:00N 37°28' E 025°19'0 0.0
2017-Sep-13 13:30N 37°28' E 025°19'0 0.0
2017-Sep-13 13:00N 37°28' E 025°19'0 0.0
2017-Sep-13 12:30N 37°28' E 025°19'0 0.0
2017-Sep-13 12:00N 37°28' E 025°19'0 0.0
2017-Sep-13 11:30N 37°28' E 025°19'0 0.0
2017-Sep-13 11:00N 37°28' E 025°19'0 0.0
2017-Sep-13 10:30N 37°28' E 025°19'0 0.0
2017-Sep-13 10:00N 37°28' E 025°19'0 0.0
2017-Sep-13 09:30N 37°28' E 025°19'0 0.0
2017-Sep-13 09:00N 37°28' E 025°19'0 0.0
2017-Sep-13 08:30N 37°28' E 025°19'0 0.0
2017-Sep-13 08:00N 37°28' E 025°19'0 0.0
2017-Sep-13 07:30N 37°28' E 025°19'0 0.0
2017-Sep-13 06:57N 37°28' E 025°19'0 0.0
2017-Sep-13 06:30N 37°28' E 025°19'0 0.0
2017-Sep-13 06:00N 37°28' E 025°19'0 0.0
2017-Sep-13 05:30N 37°28' E 025°19'0 0.0
2017-Sep-13 05:00N 37°28' E 025°19'0 0.0
2017-Sep-13 04:30N 37°28' E 025°19'0 0.0
2017-Sep-13 04:00N 37°28' E 025°19'0 0.4
2017-Sep-13 03:30N 37°28' E 025°19'510.4
2017-Sep-13 03:01N 37°27' E 025°13'713.6
2017-Sep-13 02:31N 37°23' E 025°06'714.7
2017-Sep-13 02:01N 37°18' E 024°60'815.3
2017-Sep-13 01:31N 37°13' E 024°52'  

Dump ship's entire track history